Shafer, Minnesota
Current Conditions -  °F | °C
As of 6:15 AM on Friday 19 Dec 2014 (Local Time) from KOEO Reporting Station
Light Snow Light Snow  
Wind Chill: 22°   Ceiling: 6000
Heat Index: 22°   Visibility: 7mi
Dew Point: 19°   Wind: 3mph
Humidity: 87%   Direction: 150°SSE
Pressure: 30.28"   Gusts: NA
Location:  45.39°N, 92.75°W
Report Text: KOEO 191215Z AUTO 15003KT 7SM -SN SCT028 BKN060 OVC100 M05/M07 A3028 RMK AO2 T10531071
Loading
Personal Weather Stations






























Interactive Weather Map New forecast layout! Learn more

10-Day Weather Forecast

Advertisements
Track Severe Weather on mobile